MET335 - Los Angeles to Boston

Airbus A321-232
603MV - Sharklet Equipped
5 hrs 30 mins
2267 nm
Scheduled - Daily

Bid/PiRep Status

Bid was submitted on Jan 10 2017.

No PiRep on file for this bid.

Departure

Departing from
Los Angeles (LAX)
Departure gate
Scheduled Departure
GMT 1700
Local 0900
METAR KLAX 170153Z 28012KT 10SM CLR 14/11 A3004 RMK AO2 SLP170 T01390111
TAF KLAX 162322Z 1700/1806 27010KT P6SM SKC FM170300 VRB03KT P6SM SKC FM170900 05004KT P6SM SKC FM172000 26008KT P6SM SKC FM180400 VRB03KT P6SM SKC
  • No charts available

Arrival

Arriving at
Boston (BOS)
Arrival gate
Scheduled Arrival
GMT 2230
Local 1730
METAR KBOS 170154Z 24011KT 10SM SCT130 BKN210 02/M07 A3025 RMK AO2 SLP241 T00221072 $
TAF KBOS 162341Z 1700/1806 24010KT P6SM BKN250 FM171100 29004KT P6SM FEW250 FM171400 35004KT P6SM SCT250 FM171700 05005KT P6SM BKN200 FM172300 10006KT P6SM -RA OVC030 FM180100 11007KT 3SM -RASN OVC010

Route Map

Planning Resources

POM7,DAG,J9,MLF,J107,OCS,J94,DBQ,BAE,ALB,GDM3
POM7.DAG J100 EKR CYS J148 MCW J16 ALB.GDM3
POM7.DAG J9 LAS J146 GLD J192 IOW J146 GIJ J554 JHW J82 ALB GDM3
POM7 DAG J146 DVC KD57Y KP69E PMM J70 JHW J82 ALB GDM3
DAG BLD J60 BCE RIL SNY J114 ONL J148 GOOLD J148 MCW J16 ALB
Route:
OFP Layout:
Units:
Detailed Navlog:
ETOPS Planning:
Plan Stepclimbs:
Runway Analysis:
Include NOTAMS:
FIR NOTAMS:
Flight Maps:

Return Flights

MET332
Airbus A321-232
1200 GMT
MET336
Airbus A321-232
2300 GMT
MET337
Airbus A321-232
1730 GMT
MET602
Boeing 787-8
0000 GMT

Popularity

Hub Current Bids PiReps this month Total PiReps
KMCI 0 0 2
KLAX 0 0 8
KBOS 0 0 1